createdAt,value
2022-10-17T00:01:01.673Z,19.37
2022-10-17T00:03:29.521Z,18.13
2022-10-17T00:05:58.320Z,16.83
2022-10-17T00:08:26.151Z,20.60
2022-10-17T00:10:59.877Z,18.13
2022-10-17T00:13:27.944Z,18.67
2022-10-17T00:15:55.796Z,17.03
2022-10-17T00:18:23.554Z,17.30
2022-10-17T00:20:51.629Z,16.83
2022-10-17T00:23:20.019Z,15.37
2022-10-17T00:25:48.126Z,17.70
2022-10-17T00:28:16.292Z,19.37
2022-10-17T00:30:43.950Z,16.13
2022-10-17T00:33:11.529Z,17.57
2022-10-17T00:35:39.108Z,14.03
2022-10-17T00:38:06.707Z,14.43
2022-10-17T00:40:34.308Z,16.53
2022-10-17T00:43:01.938Z,20.47
2022-10-17T00:45:31.184Z,31.30
2022-10-17T00:48:08.341Z,41.30
2022-10-17T00:50:38.611Z,44.13
2022-10-17T00:53:07.816Z,64.90
2022-10-17T00:55:42.336Z,43.37
2022-10-17T00:58:09.975Z,53.03
2022-10-17T01:00:38.095Z,26.40
2022-10-17T01:03:05.672Z,28.23
2022-10-17T01:05:33.387Z,22.73
2022-10-17T01:08:01.894Z,35.90
2022-10-17T01:10:54.619Z,28.40
2022-10-17T01:13:36.313Z,38.80
2022-10-17T01:16:09.807Z,125.27
2022-10-17T01:18:40.330Z,38.40
2022-10-17T01:21:35.510Z,43.17
2022-10-17T01:24:11.785Z,34.30
2022-10-17T01:27:03.888Z,53.23
2022-10-17T01:29:56.887Z,61.50
2022-10-17T01:32:43.880Z,33.70
2022-10-17T01:35:24.119Z,30.17
2022-10-17T01:38:15.445Z,27.30
2022-10-17T01:40:51.419Z,24.90
2022-10-17T01:43:18.924Z,32.00
2022-10-17T01:45:53.263Z,29.43
2022-10-17T01:48:27.984Z,44.77
2022-10-17T01:51:03.622Z,34.27
2022-10-17T01:53:36.973Z,26.03
2022-10-17T01:56:08.641Z,23.03
2022-10-17T01:59:00.996Z,82.73
2022-10-17T02:01:30.866Z,35.73
2022-10-17T02:04:00.639Z,113.17
2022-10-17T02:06:28.210Z,70.23
2022-10-17T02:08:55.804Z,73.47
2022-10-17T02:11:25.979Z,34.23
2022-10-17T02:14:24.110Z,44.70
2022-10-17T02:17:12.503Z,37.20
2022-10-17T02:20:01.415Z,51.87
2022-10-17T02:22:31.722Z,51.17
2022-10-17T02:25:23.637Z,58.80
2022-10-17T02:28:03.560Z,41.40
2022-10-17T02:30:44.174Z,43.07
2022-10-17T02:33:16.645Z,36.57
2022-10-17T02:35:49.605Z,30.27
2022-10-17T02:38:19.033Z,79.67
2022-10-17T02:40:47.929Z,53.93
2022-10-17T02:43:15.521Z,19.33
2022-10-17T02:45:43.199Z,33.73
2022-10-17T02:48:28.480Z,26.50
2022-10-17T02:50:58.772Z,27.20
2022-10-17T02:53:38.619Z,18.10
2022-10-17T02:56:14.657Z,54.40
2022-10-17T02:58:45.294Z,42.17
2022-10-17T03:01:14.567Z,35.13
2022-10-17T03:03:42.143Z,35.07
2022-10-17T03:06:09.702Z,20.90
2022-10-17T03:11:05.937Z,17.57
2022-10-17T03:13:36.233Z,17.43
2022-10-17T03:16:06.818Z,17.10
2022-10-17T03:18:34.366Z,27.20
2022-10-17T03:21:01.953Z,41.57
2022-10-17T03:23:29.632Z,40.77
2022-10-17T03:25:57.175Z,34.10
2022-10-17T03:28:24.819Z,54.20
2022-10-17T03:30:52.462Z,38.37
2022-10-17T03:33:20.052Z,35.90
2022-10-17T03:35:47.799Z,39.60
2022-10-17T03:38:15.374Z,32.43
2022-10-17T03:40:43.264Z,30.23
2022-10-17T03:43:11.865Z,20.00
2022-10-17T03:45:39.558Z,19.37
2022-10-17T03:48:07.112Z,17.83
2022-10-17T03:50:35.054Z,21.00
2022-10-17T03:53:02.613Z,13.20
2022-10-17T03:55:30.221Z,13.40
2022-10-17T03:57:57.874Z,13.27
2022-10-17T04:00:25.522Z,13.53
2022-10-17T04:02:53.068Z,14.03
2022-10-17T04:05:20.660Z,20.90
2022-10-17T04:07:48.417Z,19.57
2022-10-17T04:10:16.264Z,19.70
2022-10-17T04:12:43.879Z,17.73
2022-10-17T04:15:11.780Z,15.57
2022-10-17T04:17:39.375Z,15.17
2022-10-17T04:20:07.561Z,14.70
2022-10-17T04:22:35.317Z,14.77
2022-10-17T04:25:02.923Z,14.83
2022-10-17T04:27:30.562Z,18.57
2022-10-17T04:29:58.129Z,14.67
2022-10-17T04:32:26.108Z,14.87
2022-10-17T04:34:53.857Z,18.27
2022-10-17T04:37:21.441Z,14.37
2022-10-17T04:39:49.024Z,17.20
2022-10-17T04:42:16.971Z,14.43
2022-10-17T04:44:44.572Z,14.83
2022-10-17T04:47:12.379Z,17.30
2022-10-17T04:52:07.485Z,17.17
2022-10-17T04:54:35.018Z,16.47
2022-10-17T04:57:02.604Z,14.40
2022-10-17T04:59:31.222Z,13.23
2022-10-17T05:01:58.766Z,36.47
2022-10-17T05:04:27.137Z,16.00
2022-10-17T05:06:54.707Z,28.07
2022-10-17T05:09:22.415Z,38.03
2022-10-17T05:11:50.009Z,34.03
2022-10-17T05:14:17.581Z,48.50
2022-10-17T05:16:45.388Z,37.17
2022-10-17T05:19:13.162Z,35.70
2022-10-17T05:21:40.860Z,43.17
2022-10-17T05:24:11.229Z,75.17
2022-10-17T05:26:38.835Z,61.63
2022-10-17T05:29:06.837Z,95.87
2022-10-17T05:31:34.471Z,44.43
2022-10-17T05:34:07.050Z,42.77
2022-10-17T05:36:36.692Z,33.80
2022-10-17T05:39:04.313Z,28.20
2022-10-17T05:41:31.895Z,22.57
2022-10-17T05:44:01.805Z,19.23
2022-10-17T05:46:32.398Z,28.10
2022-10-17T05:48:59.989Z,26.93
2022-10-17T05:51:28.581Z,46.07
2022-10-17T05:53:56.386Z,42.57
2022-10-17T05:56:24.002Z,62.37
2022-10-17T05:58:55.054Z,42.87
2022-10-17T06:01:24.438Z,27.60
2022-10-17T06:03:54.790Z,35.20
2022-10-17T06:06:22.822Z,25.47
2022-10-17T06:08:50.523Z,49.20
2022-10-17T06:11:18.208Z,52.97
2022-10-17T06:13:45.892Z,32.73
2022-10-17T06:16:13.549Z,35.87
2022-10-17T06:18:41.127Z,25.57
2022-10-17T06:21:10.767Z,39.90
2022-10-17T06:23:38.715Z,25.63
2022-10-17T06:26:07.098Z,28.97
2022-10-17T06:28:35.939Z,22.30
2022-10-17T06:31:14.506Z,24.97
2022-10-17T06:33:42.235Z,21.73
2022-10-17T06:36:12.768Z,20.07
2022-10-17T06:38:40.706Z,22.40
2022-10-17T06:41:13.591Z,19.03
2022-10-17T06:43:43.380Z,16.30
2022-10-17T06:46:10.984Z,18.30
2022-10-17T06:48:38.787Z,17.80
2022-10-17T06:51:07.412Z,22.00
2022-10-17T06:53:36.081Z,20.47
2022-10-17T06:56:05.225Z,16.80
2022-10-17T06:58:35.388Z,15.40
2022-10-17T07:01:06.390Z,24.80
2022-10-17T07:03:34.266Z,23.00
2022-10-17T07:06:02.256Z,26.60
2022-10-17T07:08:29.873Z,20.40
2022-10-17T07:10:58.100Z,25.90
2022-10-17T07:13:25.756Z,24.43
2022-10-17T07:18:25.910Z,17.03
2022-10-17T07:20:54.783Z,17.93
2022-10-17T07:23:23.515Z,22.67
2022-10-17T07:25:51.309Z,19.33
2022-10-17T07:28:19.291Z,17.30
2022-10-17T07:30:50.682Z,19.60
2022-10-17T07:33:21.491Z,15.43
2022-10-17T07:35:49.108Z,14.23
2022-10-17T07:38:16.709Z,15.37
2022-10-17T07:40:44.369Z,16.97
2022-10-17T07:43:12.029Z,19.20
2022-10-17T07:45:41.308Z,16.17
2022-10-17T07:48:08.962Z,16.30
2022-10-17T07:50:36.550Z,16.80
2022-10-17T07:53:05.382Z,16.83
2022-10-17T07:55:33.121Z,15.53
2022-10-17T07:58:00.755Z,14.53
2022-10-17T08:00:28.400Z,17.67
2022-10-17T08:02:56.002Z,15.87
2022-10-17T08:05:23.661Z,16.77
2022-10-17T08:07:51.392Z,14.60
2022-10-17T08:10:19.309Z,14.70
2022-10-17T08:12:46.895Z,14.53
2022-10-17T08:15:14.532Z,17.07
2022-10-17T08:17:42.129Z,15.50
2022-10-17T08:20:10.604Z,13.07
2022-10-17T08:22:38.470Z,17.30
2022-10-17T08:25:06.935Z,14.23
2022-10-17T08:27:35.232Z,13.17
2022-10-17T08:30:04.023Z,13.43
2022-10-17T08:32:31.960Z,14.47
2022-10-17T08:34:59.863Z,14.40
2022-10-17T08:37:27.804Z,14.40
2022-10-17T08:39:55.697Z,16.43
2022-10-17T08:42:54.447Z,15.77
2022-10-17T08:45:33.060Z,16.73
2022-10-17T08:48:04.348Z,17.73
2022-10-17T08:50:35.619Z,12.57
2022-10-17T08:53:39.383Z,11.90
2022-10-17T08:56:25.031Z,12.00
2022-10-17T08:59:21.576Z,12.37
2022-10-17T09:02:20.953Z,12.23
2022-10-17T09:05:01.898Z,11.33
2022-10-17T09:07:47.854Z,11.03
2022-10-17T09:10:27.820Z,10.97
2022-10-17T09:13:07.989Z,12.43
2022-10-17T09:16:03.782Z,12.67
2022-10-17T09:18:39.860Z,13.90
2022-10-17T09:21:16.403Z,11.73
2022-10-17T09:24:03.961Z,11.43
2022-10-17T09:26:40.407Z,13.53
2022-10-17T09:29:23.204Z,11.77
2022-10-17T09:32:05.558Z,12.47
2022-10-17T09:34:33.442Z,11.50
2022-10-17T09:37:02.459Z,11.83
2022-10-17T09:39:33.512Z,14.10
2022-10-17T09:42:02.572Z,12.13
2022-10-17T09:44:34.585Z,11.80
2022-10-17T09:47:27.118Z,11.17
2022-10-17T09:49:55.136Z,10.87
2022-10-17T09:52:39.369Z,10.80
2022-10-17T09:55:35.334Z,10.47
2022-10-17T09:58:05.130Z,10.90
2022-10-17T10:00:43.331Z,10.55
2022-10-17T10:03:30.963Z,12.90
2022-10-17T10:06:05.961Z,11.77
2022-10-17T10:08:49.741Z,10.00
2022-10-17T10:11:19.308Z,9.98
2022-10-17T10:13:49.214Z,12.05
2022-10-17T10:16:20.860Z,9.07
2022-10-17T10:18:50.969Z,9.48
2022-10-17T10:21:22.990Z,8.52
2022-10-17T10:23:59.669Z,9.65
2022-10-17T10:26:35.964Z,9.93
2022-10-17T10:29:07.975Z,9.23
2022-10-17T10:31:39.148Z,9.32
2022-10-17T10:34:29.000Z,10.20
2022-10-17T10:37:00.086Z,9.20
2022-10-17T10:39:57.786Z,12.57
2022-10-17T10:42:33.259Z,9.13
2022-10-17T10:45:35.912Z,10.77
2022-10-17T10:48:26.680Z,6.88
2022-10-17T10:51:13.916Z,8.65
2022-10-17T10:53:54.723Z,5.40
2022-10-17T10:56:31.421Z,6.05
2022-10-17T10:59:10.809Z,10.07
2022-10-17T11:01:53.655Z,4.40
2022-10-17T11:04:27.125Z,4.22
2022-10-17T11:07:11.206Z,4.80
2022-10-17T11:10:10.853Z,4.53
2022-10-17T11:13:00.807Z,7.32
2022-10-17T11:15:41.291Z,4.70
2022-10-17T11:18:31.438Z,5.00
2022-10-17T11:21:15.753Z,4.90
2022-10-17T11:23:47.022Z,4.57
2022-10-17T11:26:26.761Z,3.42
2022-10-17T11:28:55.866Z,4.55
2022-10-17T11:31:31.706Z,3.70
2022-10-17T11:34:07.110Z,5.45
2022-10-17T11:36:40.501Z,4.30
2022-10-17T11:39:12.393Z,5.82
2022-10-17T11:41:55.488Z,11.00
2022-10-17T11:44:32.409Z,9.63
2022-10-17T11:47:22.810Z,5.35
2022-10-17T11:53:16.981Z,5.90
2022-10-17T11:55:46.351Z,6.35
2022-10-17T11:58:23.686Z,5.28
2022-10-17T12:01:12.759Z,5.10
2022-10-17T12:03:50.705Z,4.15
2022-10-17T12:06:44.711Z,11.18
2022-10-17T12:09:37.140Z,9.70
2022-10-17T12:12:05.074Z,5.22
2022-10-17T12:14:46.887Z,3.80
2022-10-17T12:17:26.182Z,8.45
2022-10-17T12:19:54.063Z,9.15
2022-10-17T12:22:26.299Z,3.63
2022-10-17T12:25:22.536Z,5.72
2022-10-17T12:27:51.102Z,5.05
2022-10-17T12:30:26.465Z,4.20
2022-10-17T12:33:07.094Z,3.92
2022-10-17T12:35:38.299Z,4.18
2022-10-17T12:38:18.518Z,4.70
2022-10-17T12:40:50.699Z,4.55
2022-10-17T12:43:18.316Z,6.97
2022-10-17T12:45:49.042Z,7.43
2022-10-17T12:48:38.120Z,5.13
2022-10-17T12:53:59.685Z,4.20
2022-10-17T12:56:43.172Z,4.97
2022-10-17T12:59:20.038Z,5.57
2022-10-17T13:01:51.588Z,6.13
2022-10-17T13:04:20.167Z,6.05
2022-10-17T13:06:53.323Z,5.70
2022-10-17T13:09:26.063Z,4.65
2022-10-17T13:11:55.219Z,3.45
2022-10-17T13:14:24.644Z,5.82
2022-10-17T13:16:57.695Z,5.20
2022-10-17T13:19:30.043Z,5.70
2022-10-17T13:22:06.877Z,4.68
2022-10-17T13:24:35.187Z,4.38
2022-10-17T13:27:04.276Z,5.75
2022-10-17T13:29:33.166Z,6.95
2022-10-17T13:32:04.260Z,4.53
2022-10-17T13:34:33.272Z,5.65
2022-10-17T13:37:26.623Z,4.95
2022-10-17T13:39:57.945Z,4.15
2022-10-17T13:42:31.401Z,9.43
2022-10-17T13:44:59.646Z,5.53
2022-10-17T13:47:33.852Z,6.10
2022-10-17T13:50:01.553Z,9.07
2022-10-17T13:52:30.534Z,4.63
2022-10-17T13:55:17.915Z,8.10
2022-10-17T13:57:45.711Z,5.35
2022-10-17T14:00:22.042Z,6.10
2022-10-17T14:02:49.677Z,6.35
2022-10-17T14:05:20.258Z,7.57
2022-10-17T14:08:15.269Z,4.95
2022-10-17T14:10:45.353Z,8.13
2022-10-17T14:13:35.946Z,5.70
2022-10-17T14:16:04.514Z,5.80
2022-10-17T14:18:36.564Z,7.47
2022-10-17T14:24:13.998Z,4.40
2022-10-17T14:26:51.651Z,7.72
2022-10-17T14:29:28.125Z,7.47
2022-10-17T14:32:05.126Z,6.78
2022-10-17T14:34:38.950Z,5.82
2022-10-17T14:37:22.875Z,5.97
2022-10-17T14:39:55.126Z,7.35
2022-10-17T14:42:23.504Z,6.20
2022-10-17T14:44:53.588Z,8.27
2022-10-17T14:47:43.242Z,6.55
2022-10-17T14:50:11.678Z,6.90
2022-10-17T14:52:40.741Z,5.63
2022-10-17T14:55:35.809Z,5.43
2022-10-17T14:58:24.164Z,8.45
2022-10-17T15:00:51.839Z,8.63
2022-10-17T15:03:20.280Z,9.05
2022-10-17T15:05:49.512Z,6.90
2022-10-17T15:08:19.393Z,8.02
2022-10-17T15:10:48.062Z,6.72
2022-10-17T15:13:27.640Z,5.60
2022-10-17T15:15:56.256Z,7.82
2022-10-17T15:18:23.902Z,5.97
2022-10-17T15:20:59.599Z,6.28
2022-10-17T15:23:32.815Z,7.95
2022-10-17T15:26:01.153Z,8.50
2022-10-17T15:28:28.791Z,10.07
2022-10-17T15:30:56.393Z,6.60
2022-10-17T15:33:24.121Z,6.07
2022-10-17T15:35:52.165Z,6.53
2022-10-17T15:38:19.841Z,6.88
2022-10-17T15:40:50.829Z,8.10
2022-10-17T15:43:20.024Z,8.88
2022-10-17T15:45:48.345Z,8.25
2022-10-17T15:48:31.586Z,5.95
2022-10-17T15:50:59.163Z,9.52
2022-10-17T15:53:27.107Z,7.70
2022-10-17T15:55:54.895Z,6.95
2022-10-17T15:58:23.107Z,9.55
2022-10-17T16:00:50.793Z,9.80
2022-10-17T16:03:18.814Z,6.88
2022-10-17T16:05:46.541Z,8.75
2022-10-17T16:08:24.557Z,11.30
2022-10-17T16:10:53.032Z,9.02
2022-10-17T16:13:23.506Z,9.82
2022-10-17T16:15:51.383Z,9.85
2022-10-17T16:18:20.175Z,13.48
2022-10-17T16:20:48.066Z,18.75
2022-10-17T16:23:15.724Z,16.50
2022-10-17T16:25:43.403Z,12.23
2022-10-17T16:28:11.975Z,10.98
2022-10-17T16:30:42.756Z,12.90
2022-10-17T16:33:10.937Z,9.77
2022-10-17T16:35:39.081Z,12.73
2022-10-17T16:38:07.812Z,11.48
2022-10-17T16:40:38.530Z,14.45
2022-10-17T16:43:07.275Z,11.05
2022-10-17T16:45:38.185Z,9.65
2022-10-17T16:48:06.471Z,15.65
2022-10-17T16:50:35.626Z,8.80
2022-10-17T16:53:03.902Z,10.70
2022-10-17T16:55:31.559Z,7.47
2022-10-17T16:57:59.976Z,8.93
2022-10-17T17:00:27.691Z,10.13
2022-10-17T17:02:55.382Z,10.38
2022-10-17T17:05:23.036Z,10.02
2022-10-17T17:07:50.690Z,11.93
2022-10-17T17:10:18.340Z,9.68
2022-10-17T17:12:46.008Z,11.90
2022-10-17T17:15:13.669Z,9.88
2022-10-17T17:17:51.469Z,12.60
2022-10-17T17:20:19.941Z,8.48
2022-10-17T17:22:48.478Z,8.63
2022-10-17T17:25:16.156Z,9.25
2022-10-17T17:27:47.321Z,11.23
2022-10-17T17:30:15.306Z,9.18
2022-10-17T17:32:42.988Z,15.10
2022-10-17T17:35:10.724Z,13.65
2022-10-17T17:37:38.284Z,11.32
2022-10-17T17:40:06.506Z,10.07
2022-10-17T17:42:34.132Z,9.88
2022-10-17T17:45:01.735Z,6.20
2022-10-17T17:47:30.001Z,10.73
2022-10-17T17:49:57.939Z,13.98
2022-10-17T17:52:25.824Z,8.35
2022-10-17T17:54:53.404Z,11.52
2022-10-17T17:57:21.302Z,10.30
2022-10-17T17:59:49.797Z,7.28
2022-10-17T18:02:17.596Z,10.07
2022-10-17T18:04:45.228Z,9.68
2022-10-17T18:07:12.903Z,13.73
2022-10-17T18:09:40.491Z,11.50
2022-10-17T18:12:08.038Z,9.90
2022-10-17T18:14:35.686Z,7.63
2022-10-17T18:17:03.270Z,9.90
2022-10-17T18:19:30.949Z,7.55
2022-10-17T18:21:58.963Z,9.68
2022-10-17T18:24:26.721Z,9.25
2022-10-17T18:26:59.592Z,8.60
2022-10-17T18:29:29.468Z,8.00
2022-10-17T18:31:57.144Z,9.25
2022-10-17T18:34:25.359Z,10.27
2022-10-17T18:36:56.133Z,9.70
2022-10-17T18:39:23.828Z,8.43
2022-10-17T18:41:51.725Z,10.52
2022-10-17T18:44:19.500Z,9.88
2022-10-17T18:46:49.162Z,10.20
2022-10-17T18:49:19.008Z,12.48
2022-10-17T18:51:46.953Z,10.98
2022-10-17T18:54:17.207Z,12.18
2022-10-17T18:56:45.155Z,12.57
2022-10-17T18:59:12.828Z,9.57
2022-10-17T19:01:40.543Z,9.27
2022-10-17T19:04:08.259Z,9.02
2022-10-17T19:06:36.082Z,10.57
2022-10-17T19:09:06.908Z,15.82
2022-10-17T19:11:36.188Z,13.23
2022-10-17T19:14:05.720Z,12.32
2022-10-17T19:16:36.407Z,11.60
2022-10-17T19:19:17.149Z,14.23
2022-10-17T19:21:45.555Z,11.57
2022-10-17T19:24:18.999Z,14.48
2022-10-17T19:26:50.207Z,15.18
2022-10-17T19:29:18.292Z,17.50
2022-10-17T19:31:46.727Z,13.07
2022-10-17T19:34:15.181Z,12.50
2022-10-17T19:36:43.105Z,15.90
2022-10-17T19:39:14.809Z,11.68
2022-10-17T19:41:44.130Z,11.90
2022-10-17T19:44:12.013Z,11.73
2022-10-17T19:46:39.810Z,10.52
2022-10-17T19:49:07.767Z,11.55
2022-10-17T19:51:35.463Z,13.73
2022-10-17T19:54:03.705Z,13.25
2022-10-17T19:56:32.973Z,13.93
2022-10-17T19:59:00.702Z,10.77
2022-10-17T20:01:30.460Z,13.57
2022-10-17T20:03:58.204Z,11.27
2022-10-17T20:06:25.889Z,10.02
2022-10-17T20:08:53.785Z,9.77
2022-10-17T20:11:23.938Z,8.65
2022-10-17T20:13:52.864Z,14.80
2022-10-17T20:16:28.339Z,9.05
2022-10-17T20:19:01.390Z,10.95
2022-10-17T20:21:35.146Z,12.32
2022-10-17T20:24:05.273Z,15.68
2022-10-17T20:26:38.219Z,10.38
2022-10-17T20:29:12.034Z,13.13
2022-10-17T20:31:41.563Z,10.00
2022-10-17T20:34:11.859Z,15.65
2022-10-17T20:36:39.661Z,10.75
2022-10-17T20:39:12.071Z,9.63
2022-10-17T20:41:40.260Z,11.95
2022-10-17T20:44:08.303Z,10.40
2022-10-17T20:46:38.519Z,8.50
2022-10-17T20:49:15.749Z,11.63
2022-10-17T20:51:44.011Z,13.75
2022-10-17T20:54:12.659Z,8.80
2022-10-17T20:56:40.393Z,9.52
2022-10-17T20:59:16.112Z,11.90
2022-10-17T21:01:45.384Z,11.13
2022-10-17T21:07:01.779Z,12.98
2022-10-17T21:09:29.645Z,14.80
2022-10-17T21:11:57.329Z,12.15
2022-10-17T21:14:25.795Z,12.10
2022-10-17T21:16:53.517Z,10.13
2022-10-17T21:19:21.777Z,11.82
2022-10-17T21:21:50.074Z,13.38
2022-10-17T21:24:20.421Z,13.57
2022-10-17T21:26:55.196Z,11.23
2022-10-17T21:29:23.751Z,9.40
2022-10-17T21:31:52.431Z,7.78
2022-10-17T21:34:22.206Z,13.50
2022-10-17T21:36:49.837Z,9.63
2022-10-17T21:39:17.762Z,12.53
2022-10-17T21:41:45.612Z,15.45
2022-10-17T21:44:18.447Z,11.43
2022-10-17T21:46:47.044Z,14.23
2022-10-17T21:49:17.934Z,11.48
2022-10-17T21:51:47.476Z,11.93
2022-10-17T21:54:18.248Z,10.65
2022-10-17T21:56:48.512Z,13.03
2022-10-17T21:59:16.584Z,8.88
2022-10-17T22:01:47.557Z,8.18
2022-10-17T22:04:17.453Z,13.63
2022-10-17T22:06:47.809Z,14.55
2022-10-17T22:09:23.556Z,12.20
2022-10-17T22:11:53.889Z,15.38
2022-10-17T22:14:23.596Z,14.37
2022-10-17T22:16:51.828Z,15.73
2022-10-17T22:19:25.284Z,11.67
2022-10-17T22:21:54.370Z,10.88
2022-10-17T22:24:23.108Z,7.45
2022-10-17T22:26:51.764Z,12.38
2022-10-17T22:29:20.162Z,9.27
2022-10-17T22:31:47.973Z,7.93
2022-10-17T22:34:17.174Z,10.88
2022-10-17T22:36:45.175Z,11.53
2022-10-17T22:39:12.848Z,11.57
2022-10-17T22:41:40.512Z,15.17
2022-10-17T22:44:08.265Z,12.70
2022-10-17T22:46:36.028Z,12.57
2022-10-17T22:49:03.790Z,13.20
2022-10-17T22:51:31.863Z,9.23
2022-10-17T22:53:59.469Z,8.07
2022-10-17T22:56:27.178Z,7.28
2022-10-17T22:58:54.780Z,8.57
2022-10-17T23:01:24.754Z,11.93
2022-10-17T23:03:53.109Z,8.53
2022-10-17T23:06:21.723Z,11.27
2022-10-17T23:08:49.467Z,9.60
2022-10-17T23:11:17.143Z,13.00
2022-10-17T23:13:44.770Z,17.33
2022-10-17T23:16:12.398Z,12.27
2022-10-17T23:18:40.384Z,15.40
2022-10-17T23:21:08.602Z,9.30
2022-10-17T23:23:36.614Z,11.73
2022-10-17T23:26:12.622Z,12.70
2022-10-17T23:28:41.290Z,9.07
2022-10-17T23:31:17.429Z,9.27
2022-10-17T23:33:46.763Z,10.20
2022-10-17T23:36:16.465Z,11.37
2022-10-17T23:38:45.275Z,8.13
2022-10-17T23:41:13.329Z,21.00
2022-10-17T23:43:40.928Z,16.50
2022-10-17T23:46:09.120Z,13.63
2022-10-17T23:48:38.432Z,9.57
2022-10-17T23:51:07.715Z,16.87
2022-10-17T23:53:36.519Z,12.90
2022-10-17T23:56:05.151Z,14.70
2022-10-17T23:58:32.934Z,12.77
